sensor_id;sensor_type;location;lat;lon;timestamp;P1;durP1;ratioP1;P2;durP2;ratioP2
41201;SDS011;26936;50.524;8.684;2023-07-30T00:01:29;5.57;;;2.38;;
41201;SDS011;26936;50.524;8.684;2023-07-30T00:03:54;7.37;;;2.23;;
41201;SDS011;26936;50.524;8.684;2023-07-30T00:06:19;5.93;;;2.13;;
41201;SDS011;26936;50.524;8.684;2023-07-30T00:08:46;7.47;;;2.30;;
41201;SDS011;26936;50.524;8.684;2023-07-30T00:11:11;2.30;;;1.80;;
41201;SDS011;26936;50.524;8.684;2023-07-30T00:13:36;4.63;;;1.83;;
41201;SDS011;26936;50.524;8.684;2023-07-30T00:16:01;6.43;;;2.22;;
41201;SDS011;26936;50.524;8.684;2023-07-30T00:18:27;3.33;;;2.05;;
41201;SDS011;26936;50.524;8.684;2023-07-30T00:20:52;4.80;;;1.90;;
41201;SDS011;26936;50.524;8.684;2023-07-30T00:23:17;3.53;;;1.70;;
41201;SDS011;26936;50.524;8.684;2023-07-30T00:25:43;2.43;;;1.70;;
41201;SDS011;26936;50.524;8.684;2023-07-30T00:28:08;2.45;;;1.58;;
41201;SDS011;26936;50.524;8.684;2023-07-30T00:30:33;5.40;;;1.60;;
41201;SDS011;26936;50.524;8.684;2023-07-30T00:32:58;6.45;;;1.60;;
41201;SDS011;26936;50.524;8.684;2023-07-30T00:35:24;5.10;;;1.97;;
41201;SDS011;26936;50.524;8.684;2023-07-30T00:37:49;4.22;;;1.98;;
41201;SDS011;26936;50.524;8.684;2023-07-30T00:40:14;6.15;;;2.28;;
41201;SDS011;26936;50.524;8.684;2023-07-30T00:42:40;4.20;;;1.60;;
41201;SDS011;26936;50.524;8.684;2023-07-30T00:45:05;3.85;;;1.67;;
41201;SDS011;26936;50.524;8.684;2023-07-30T00:47:31;4.80;;;1.77;;
41201;SDS011;26936;50.524;8.684;2023-07-30T00:49:56;6.82;;;1.90;;
41201;SDS011;26936;50.524;8.684;2023-07-30T00:52:22;6.45;;;1.73;;
41201;SDS011;26936;50.524;8.684;2023-07-30T00:54:48;3.28;;;1.50;;
41201;SDS011;26936;50.524;8.684;2023-07-30T00:57:15;3.60;;;2.10;;
41201;SDS011;26936;50.524;8.684;2023-07-30T00:59:41;7.63;;;1.90;;
41201;SDS011;26936;50.524;8.684;2023-07-30T01:02:07;3.78;;;1.70;;
41201;SDS011;26936;50.524;8.684;2023-07-30T01:04:33;4.65;;;1.60;;
41201;SDS011;26936;50.524;8.684;2023-07-30T01:06:58;4.13;;;1.70;;
41201;SDS011;26936;50.524;8.684;2023-07-30T01:09:24;11.40;;;2.30;;
41201;SDS011;26936;50.524;8.684;2023-07-30T01:11:49;5.95;;;1.70;;
41201;SDS011;26936;50.524;8.684;2023-07-30T01:14:18;4.05;;;1.90;;
41201;SDS011;26936;50.524;8.684;2023-07-30T01:16:46;2.65;;;1.67;;
41201;SDS011;26936;50.524;8.684;2023-07-30T01:19:11;5.30;;;1.70;;
41201;SDS011;26936;50.524;8.684;2023-07-30T01:21:36;4.53;;;1.97;;
41201;SDS011;26936;50.524;8.684;2023-07-30T01:24:02;2.90;;;1.90;;
41201;SDS011;26936;50.524;8.684;2023-07-30T01:26:35;6.78;;;2.20;;
41201;SDS011;26936;50.524;8.684;2023-07-30T01:29:01;2.47;;;1.83;;
41201;SDS011;26936;50.524;8.684;2023-07-30T01:31:31;4.55;;;2.20;;
41201;SDS011;26936;50.524;8.684;2023-07-30T01:33:59;3.35;;;2.10;;
41201;SDS011;26936;50.524;8.684;2023-07-30T01:36:28;3.95;;;2.22;;
41201;SDS011;26936;50.524;8.684;2023-07-30T01:38:54;3.80;;;1.95;;
41201;SDS011;26936;50.524;8.684;2023-07-30T01:41:21;3.97;;;1.90;;
41201;SDS011;26936;50.524;8.684;2023-07-30T01:43:47;3.15;;;2.17;;
41201;SDS011;26936;50.524;8.684;2023-07-30T01:46:12;4.10;;;1.88;;
41201;SDS011;26936;50.524;8.684;2023-07-30T01:48:37;4.30;;;2.17;;
41201;SDS011;26936;50.524;8.684;2023-07-30T01:51:02;3.50;;;2.10;;
41201;SDS011;26936;50.524;8.684;2023-07-30T01:53:28;6.13;;;1.75;;
41201;SDS011;26936;50.524;8.684;2023-07-30T01:55:53;3.33;;;2.20;;
41201;SDS011;26936;50.524;8.684;2023-07-30T01:58:18;5.27;;;2.27;;
41201;SDS011;26936;50.524;8.684;2023-07-30T02:00:44;6.13;;;2.10;;
41201;SDS011;26936;50.524;8.684;2023-07-30T02:03:10;4.85;;;2.10;;
41201;SDS011;26936;50.524;8.684;2023-07-30T02:05:35;4.35;;;2.15;;
41201;SDS011;26936;50.524;8.684;2023-07-30T02:08:00;3.13;;;2.22;;
41201;SDS011;26936;50.524;8.684;2023-07-30T02:10:26;3.47;;;2.22;;
41201;SDS011;26936;50.524;8.684;2023-07-30T02:12:51;4.40;;;2.10;;
41201;SDS011;26936;50.524;8.684;2023-07-30T02:15:16;4.73;;;2.30;;
41201;SDS011;26936;50.524;8.684;2023-07-30T02:17:42;5.20;;;1.92;;
41201;SDS011;26936;50.524;8.684;2023-07-30T02:20:07;7.75;;;2.33;;
41201;SDS011;26936;50.524;8.684;2023-07-30T02:22:33;5.03;;;2.38;;
41201;SDS011;26936;50.524;8.684;2023-07-30T02:24:58;4.53;;;2.13;;
41201;SDS011;26936;50.524;8.684;2023-07-30T02:27:24;4.37;;;2.43;;
41201;SDS011;26936;50.524;8.684;2023-07-30T02:29:49;3.97;;;2.57;;
41201;SDS011;26936;50.524;8.684;2023-07-30T02:32:15;5.67;;;2.40;;
41201;SDS011;26936;50.524;8.684;2023-07-30T02:34:40;4.45;;;2.33;;
41201;SDS011;26936;50.524;8.684;2023-07-30T02:37:06;5.28;;;2.28;;
41201;SDS011;26936;50.524;8.684;2023-07-30T02:39:31;6.67;;;2.53;;
41201;SDS011;26936;50.524;8.684;2023-07-30T02:41:56;4.63;;;2.30;;
41201;SDS011;26936;50.524;8.684;2023-07-30T02:44:21;3.73;;;2.37;;
41201;SDS011;26936;50.524;8.684;2023-07-30T02:46:47;5.03;;;2.50;;
41201;SDS011;26936;50.524;8.684;2023-07-30T02:49:12;7.50;;;2.23;;
41201;SDS011;26936;50.524;8.684;2023-07-30T02:51:37;5.30;;;2.37;;
41201;SDS011;26936;50.524;8.684;2023-07-30T02:54:06;2.53;;;2.10;;
41201;SDS011;26936;50.524;8.684;2023-07-30T02:56:32;4.13;;;2.17;;
41201;SDS011;26936;50.524;8.684;2023-07-30T02:58:58;4.93;;;2.08;;
41201;SDS011;26936;50.524;8.684;2023-07-30T03:01:24;4.43;;;2.00;;
41201;SDS011;26936;50.524;8.684;2023-07-30T03:03:49;2.92;;;1.90;;
41201;SDS011;26936;50.524;8.684;2023-07-30T03:06:14;7.37;;;2.50;;
41201;SDS011;26936;50.524;8.684;2023-07-30T03:08:41;3.67;;;2.15;;
41201;SDS011;26936;50.524;8.684;2023-07-30T03:11:07;3.00;;;1.85;;
41201;SDS011;26936;50.524;8.684;2023-07-30T03:13:33;6.53;;;2.28;;
41201;SDS011;26936;50.524;8.684;2023-07-30T03:15:58;4.67;;;1.63;;
41201;SDS011;26936;50.524;8.684;2023-07-30T03:18:23;3.77;;;2.30;;
41201;SDS011;26936;50.524;8.684;2023-07-30T03:20:49;2.88;;;2.10;;
41201;SDS011;26936;50.524;8.684;2023-07-30T03:23:14;3.58;;;2.00;;
41201;SDS011;26936;50.524;8.684;2023-07-30T03:25:40;4.93;;;2.30;;
41201;SDS011;26936;50.524;8.684;2023-07-30T03:28:05;4.50;;;2.40;;
41201;SDS011;26936;50.524;8.684;2023-07-30T03:30:30;3.75;;;2.10;;
41201;SDS011;26936;50.524;8.684;2023-07-30T03:32:55;3.65;;;1.98;;
41201;SDS011;26936;50.524;8.684;2023-07-30T03:35:21;4.37;;;2.07;;
41201;SDS011;26936;50.524;8.684;2023-07-30T03:37:46;2.25;;;1.77;;
41201;SDS011;26936;50.524;8.684;2023-07-30T03:40:11;3.43;;;2.10;;
41201;SDS011;26936;50.524;8.684;2023-07-30T03:42:37;5.47;;;2.20;;
41201;SDS011;26936;50.524;8.684;2023-07-30T03:45:02;6.80;;;2.40;;
41201;SDS011;26936;50.524;8.684;2023-07-30T03:47:28;4.43;;;2.25;;
41201;SDS011;26936;50.524;8.684;2023-07-30T03:49:53;5.50;;;2.00;;
41201;SDS011;26936;50.524;8.684;2023-07-30T03:52:18;4.67;;;2.03;;
41201;SDS011;26936;50.524;8.684;2023-07-30T03:54:43;5.30;;;2.15;;
41201;SDS011;26936;50.524;8.684;2023-07-30T03:57:09;5.22;;;2.08;;
41201;SDS011;26936;50.524;8.684;2023-07-30T03:59:34;4.73;;;2.07;;
41201;SDS011;26936;50.524;8.684;2023-07-30T04:01:59;6.68;;;2.33;;
41201;SDS011;26936;50.524;8.684;2023-07-30T04:04:25;3.90;;;2.40;;
41201;SDS011;26936;50.524;8.684;2023-07-30T04:06:50;6.38;;;2.30;;
41201;SDS011;26936;50.524;8.684;2023-07-30T04:09:16;5.40;;;2.30;;
41201;SDS011;26936;50.524;8.684;2023-07-30T04:11:41;3.33;;;2.03;;
41201;SDS011;26936;50.524;8.684;2023-07-30T04:14:06;4.73;;;2.40;;
41201;SDS011;26936;50.524;8.684;2023-07-30T04:16:33;4.15;;;2.33;;
41201;SDS011;26936;50.524;8.684;2023-07-30T04:18:59;4.00;;;2.08;;
41201;SDS011;26936;50.524;8.684;2023-07-30T04:21:24;4.50;;;2.40;;
41201;SDS011;26936;50.524;8.684;2023-07-30T04:23:49;4.22;;;1.90;;
41201;SDS011;26936;50.524;8.684;2023-07-30T04:26:15;3.92;;;2.40;;
41201;SDS011;26936;50.524;8.684;2023-07-30T04:28:40;4.93;;;2.00;;
41201;SDS011;26936;50.524;8.684;2023-07-30T04:31:08;3.75;;;2.40;;
41201;SDS011;26936;50.524;8.684;2023-07-30T04:33:34;4.30;;;1.93;;
41201;SDS011;26936;50.524;8.684;2023-07-30T04:35:59;7.57;;;2.70;;
41201;SDS011;26936;50.524;8.684;2023-07-30T04:38:24;6.57;;;2.40;;
41201;SDS011;26936;50.524;8.684;2023-07-30T04:40:50;4.50;;;1.90;;
41201;SDS011;26936;50.524;8.684;2023-07-30T04:43:15;4.20;;;2.20;;
41201;SDS011;26936;50.524;8.684;2023-07-30T04:45:40;3.73;;;2.03;;
41201;SDS011;26936;50.524;8.684;2023-07-30T04:48:07;4.47;;;2.03;;
41201;SDS011;26936;50.524;8.684;2023-07-30T04:50:32;4.33;;;2.40;;
41201;SDS011;26936;50.524;8.684;2023-07-30T04:52:57;3.23;;;2.10;;
41201;SDS011;26936;50.524;8.684;2023-07-30T04:55:23;4.25;;;2.35;;
41201;SDS011;26936;50.524;8.684;2023-07-30T04:57:49;7.47;;;1.98;;
41201;SDS011;26936;50.524;8.684;2023-07-30T05:00:14;3.33;;;2.07;;
41201;SDS011;26936;50.524;8.684;2023-07-30T05:02:39;4.25;;;1.92;;
41201;SDS011;26936;50.524;8.684;2023-07-30T05:05:05;12.20;;;2.80;;
41201;SDS011;26936;50.524;8.684;2023-07-30T05:07:30;4.50;;;2.28;;
41201;SDS011;26936;50.524;8.684;2023-07-30T05:09:56;3.83;;;1.90;;
41201;SDS011;26936;50.524;8.684;2023-07-30T05:12:21;4.37;;;2.20;;
41201;SDS011;26936;50.524;8.684;2023-07-30T05:14:46;6.78;;;2.20;;
41201;SDS011;26936;50.524;8.684;2023-07-30T05:17:11;2.93;;;2.20;;
41201;SDS011;26936;50.524;8.684;2023-07-30T05:19:37;2.90;;;1.83;;
41201;SDS011;26936;50.524;8.684;2023-07-30T05:22:02;3.17;;;2.10;;
41201;SDS011;26936;50.524;8.684;2023-07-30T05:24:27;4.35;;;2.00;;
41201;SDS011;26936;50.524;8.684;2023-07-30T05:26:53;3.60;;;2.00;;
41201;SDS011;26936;50.524;8.684;2023-07-30T05:29:18;3.13;;;1.75;;
41201;SDS011;26936;50.524;8.684;2023-07-30T05:31:44;3.90;;;2.03;;
41201;SDS011;26936;50.524;8.684;2023-07-30T05:34:09;4.95;;;1.90;;
41201;SDS011;26936;50.524;8.684;2023-07-30T05:36:34;3.80;;;2.00;;
41201;SDS011;26936;50.524;8.684;2023-07-30T05:38:59;4.85;;;1.70;;
41201;SDS011;26936;50.524;8.684;2023-07-30T05:41:25;2.37;;;1.70;;
41201;SDS011;26936;50.524;8.684;2023-07-30T05:43:50;3.15;;;1.70;;
41201;SDS011;26936;50.524;8.684;2023-07-30T05:46:15;4.03;;;1.50;;
41201;SDS011;26936;50.524;8.684;2023-07-30T05:48:41;4.90;;;1.73;;
41201;SDS011;26936;50.524;8.684;2023-07-30T05:51:06;1.90;;;1.50;;
41201;SDS011;26936;50.524;8.684;2023-07-30T05:53:31;3.27;;;1.83;;
41201;SDS011;26936;50.524;8.684;2023-07-30T05:55:56;1.75;;;1.30;;
41201;SDS011;26936;50.524;8.684;2023-07-30T05:58:22;3.55;;;1.67;;
41201;SDS011;26936;50.524;8.684;2023-07-30T06:00:47;3.47;;;1.50;;
41201;SDS011;26936;50.524;8.684;2023-07-30T06:03:12;5.70;;;1.90;;
41201;SDS011;26936;50.524;8.684;2023-07-30T06:05:38;3.33;;;1.35;;
41201;SDS011;26936;50.524;8.684;2023-07-30T06:08:07;1.90;;;1.10;;
41201;SDS011;26936;50.524;8.684;2023-07-30T06:10:38;2.42;;;1.52;;
41201;SDS011;26936;50.524;8.684;2023-07-30T06:13:05;2.95;;;1.33;;
41201;SDS011;26936;50.524;8.684;2023-07-30T06:15:31;3.42;;;1.40;;
41201;SDS011;26936;50.524;8.684;2023-07-30T06:17:57;2.15;;;1.30;;
41201;SDS011;26936;50.524;8.684;2023-07-30T06:20:22;2.72;;;1.42;;
41201;SDS011;26936;50.524;8.684;2023-07-30T06:22:47;4.80;;;1.30;;
41201;SDS011;26936;50.524;8.684;2023-07-30T06:25:13;2.97;;;1.50;;
41201;SDS011;26936;50.524;8.684;2023-07-30T06:27:38;4.03;;;1.20;;
41201;SDS011;26936;50.524;8.684;2023-07-30T06:30:03;2.67;;;1.33;;
41201;SDS011;26936;50.524;8.684;2023-07-30T06:32:29;2.30;;;1.20;;
41201;SDS011;26936;50.524;8.684;2023-07-30T06:34:55;3.40;;;1.20;;
41201;SDS011;26936;50.524;8.684;2023-07-30T06:37:20;2.63;;;1.40;;
41201;SDS011;26936;50.524;8.684;2023-07-30T06:39:45;4.60;;;1.35;;
41201;SDS011;26936;50.524;8.684;2023-07-30T06:42:10;3.13;;;1.70;;
41201;SDS011;26936;50.524;8.684;2023-07-30T06:44:36;3.65;;;1.10;;
41201;SDS011;26936;50.524;8.684;2023-07-30T06:47:01;2.70;;;1.50;;
41201;SDS011;26936;50.524;8.684;2023-07-30T06:49:27;2.42;;;1.55;;
41201;SDS011;26936;50.524;8.684;2023-07-30T06:51:52;4.78;;;1.40;;
41201;SDS011;26936;50.524;8.684;2023-07-30T06:54:17;5.67;;;1.10;;
41201;SDS011;26936;50.524;8.684;2023-07-30T06:56:42;4.50;;;1.63;;
41201;SDS011;26936;50.524;8.684;2023-07-30T06:59:08;3.20;;;1.73;;
41201;SDS011;26936;50.524;8.684;2023-07-30T07:01:33;2.90;;;1.30;;
41201;SDS011;26936;50.524;8.684;2023-07-30T07:03:58;5.30;;;1.27;;
41201;SDS011;26936;50.524;8.684;2023-07-30T07:06:24;3.97;;;1.67;;
41201;SDS011;26936;50.524;8.684;2023-07-30T07:08:49;4.20;;;1.42;;
41201;SDS011;26936;50.524;8.684;2023-07-30T07:11:14;8.27;;;1.53;;
41201;SDS011;26936;50.524;8.684;2023-07-30T07:13:39;5.60;;;1.73;;
41201;SDS011;26936;50.524;8.684;2023-07-30T07:16:05;4.63;;;1.37;;
41201;SDS011;26936;50.524;8.684;2023-07-30T07:18:31;3.90;;;1.50;;
41201;SDS011;26936;50.524;8.684;2023-07-30T07:20:56;2.78;;;1.33;;
41201;SDS011;26936;50.524;8.684;2023-07-30T07:23:21;5.23;;;1.57;;
41201;SDS011;26936;50.524;8.684;2023-07-30T07:25:47;7.60;;;2.08;;
41201;SDS011;26936;50.524;8.684;2023-07-30T07:28:12;5.70;;;2.00;;
41201;SDS011;26936;50.524;8.684;2023-07-30T07:30:37;6.45;;;1.40;;
41201;SDS011;26936;50.524;8.684;2023-07-30T07:33:03;3.77;;;1.73;;
41201;SDS011;26936;50.524;8.684;2023-07-30T07:35:30;3.17;;;1.88;;
41201;SDS011;26936;50.524;8.684;2023-07-30T07:37:55;5.43;;;1.40;;
41201;SDS011;26936;50.524;8.684;2023-07-30T07:40:20;2.53;;;1.20;;
41201;SDS011;26936;50.524;8.684;2023-07-30T07:42:46;3.80;;;1.38;;
41201;SDS011;26936;50.524;8.684;2023-07-30T07:45:11;5.23;;;1.53;;
41201;SDS011;26936;50.524;8.684;2023-07-30T07:47:36;4.68;;;1.67;;
41201;SDS011;26936;50.524;8.684;2023-07-30T07:50:02;4.00;;;1.52;;
41201;SDS011;26936;50.524;8.684;2023-07-30T07:52:27;3.10;;;1.38;;
41201;SDS011;26936;50.524;8.684;2023-07-30T07:54:52;5.75;;;1.50;;
41201;SDS011;26936;50.524;8.684;2023-07-30T07:57:18;4.47;;;1.55;;
41201;SDS011;26936;50.524;8.684;2023-07-30T07:59:43;5.72;;;1.75;;
41201;SDS011;26936;50.524;8.684;2023-07-30T08:02:10;2.42;;;1.20;;
41201;SDS011;26936;50.524;8.684;2023-07-30T08:04:36;2.85;;;1.45;;
41201;SDS011;26936;50.524;8.684;2023-07-30T08:07:01;5.23;;;1.37;;
41201;SDS011;26936;50.524;8.684;2023-07-30T08:09:28;3.38;;;1.40;;
41201;SDS011;26936;50.524;8.684;2023-07-30T08:11:56;4.18;;;1.40;;
41201;SDS011;26936;50.524;8.684;2023-07-30T08:14:21;2.88;;;1.30;;
41201;SDS011;26936;50.524;8.684;2023-07-30T08:16:47;2.50;;;1.00;;
41201;SDS011;26936;50.524;8.684;2023-07-30T08:19:12;2.35;;;1.05;;
41201;SDS011;26936;50.524;8.684;2023-07-30T08:21:37;4.78;;;1.50;;
41201;SDS011;26936;50.524;8.684;2023-07-30T08:24:03;3.97;;;1.20;;
41201;SDS011;26936;50.524;8.684;2023-07-30T08:26:28;5.82;;;1.40;;
41201;SDS011;26936;50.524;8.684;2023-07-30T08:28:54;2.97;;;1.08;;
41201;SDS011;26936;50.524;8.684;2023-07-30T08:31:19;1.70;;;0.97;;
41201;SDS011;26936;50.524;8.684;2023-07-30T08:33:44;2.30;;;0.90;;
41201;SDS011;26936;50.524;8.684;2023-07-30T08:36:09;1.65;;;1.00;;
41201;SDS011;26936;50.524;8.684;2023-07-30T08:38:35;5.10;;;1.40;;
41201;SDS011;26936;50.524;8.684;2023-07-30T08:41:00;4.40;;;1.20;;
41201;SDS011;26936;50.524;8.684;2023-07-30T08:43:26;4.25;;;1.20;;
41201;SDS011;26936;50.524;8.684;2023-07-30T08:45:51;2.00;;;1.20;;
41201;SDS011;26936;50.524;8.684;2023-07-30T08:48:17;3.58;;;1.30;;
41201;SDS011;26936;50.524;8.684;2023-07-30T08:50:42;3.22;;;1.20;;
41201;SDS011;26936;50.524;8.684;2023-07-30T08:53:08;2.17;;;1.17;;
41201;SDS011;26936;50.524;8.684;2023-07-30T08:55:34;2.40;;;1.20;;
41201;SDS011;26936;50.524;8.684;2023-07-30T08:58:01;4.00;;;1.20;;
41201;SDS011;26936;50.524;8.684;2023-07-30T09:00:28;2.60;;;1.30;;
41201;SDS011;26936;50.524;8.684;2023-07-30T09:02:59;3.88;;;1.40;;
41201;SDS011;26936;50.524;8.684;2023-07-30T09:05:25;2.22;;;1.33;;
41201;SDS011;26936;50.524;8.684;2023-07-30T09:07:54;3.78;;;1.30;;
41201;SDS011;26936;50.524;8.684;2023-07-30T09:10:20;3.25;;;1.30;;
41201;SDS011;26936;50.524;8.684;2023-07-30T09:12:45;2.30;;;1.35;;
41201;SDS011;26936;50.524;8.684;2023-07-30T09:15:10;2.73;;;1.20;;
41201;SDS011;26936;50.524;8.684;2023-07-30T09:17:36;3.50;;;1.55;;
41201;SDS011;26936;50.524;8.684;2023-07-30T09:20:02;3.47;;;1.38;;
41201;SDS011;26936;50.524;8.684;2023-07-30T09:22:29;2.78;;;1.25;;
41201;SDS011;26936;50.524;8.684;2023-07-30T09:25:06;3.42;;;1.65;;
41201;SDS011;26936;50.524;8.684;2023-07-30T09:27:32;3.75;;;1.50;;
41201;SDS011;26936;50.524;8.684;2023-07-30T09:29:58;4.65;;;1.65;;
41201;SDS011;26936;50.524;8.684;2023-07-30T09:32:29;2.40;;;1.33;;
41201;SDS011;26936;50.524;8.684;2023-07-30T09:35:09;5.85;;;1.88;;
41201;SDS011;26936;50.524;8.684;2023-07-30T09:37:36;7.75;;;2.03;;
41201;SDS011;26936;50.524;8.684;2023-07-30T09:40:13;5.47;;;2.30;;
41201;SDS011;26936;50.524;8.684;2023-07-30T09:42:43;4.30;;;2.20;;
41201;SDS011;26936;50.524;8.684;2023-07-30T09:45:20;5.38;;;2.65;;
41201;SDS011;26936;50.524;8.684;2023-07-30T09:47:47;4.43;;;2.17;;
41201;SDS011;26936;50.524;8.684;2023-07-30T09:50:13;7.25;;;2.90;;
41201;SDS011;26936;50.524;8.684;2023-07-30T09:52:39;6.25;;;3.58;;
41201;SDS011;26936;50.524;8.684;2023-07-30T09:55:06;7.22;;;2.75;;
41201;SDS011;26936;50.524;8.684;2023-07-30T09:57:32;8.35;;;3.28;;
41201;SDS011;26936;50.524;8.684;2023-07-30T09:59:58;6.90;;;3.50;;
41201;SDS011;26936;50.524;8.684;2023-07-30T10:02:23;8.77;;;4.07;;
41201;SDS011;26936;50.524;8.684;2023-07-30T10:04:50;4.70;;;3.58;;
41201;SDS011;26936;50.524;8.684;2023-07-30T10:07:19;7.50;;;3.85;;
41201;SDS011;26936;50.524;8.684;2023-07-30T10:09:47;7.90;;;3.42;;
41201;SDS011;26936;50.524;8.684;2023-07-30T10:12:16;11.77;;;3.33;;
41201;SDS011;26936;50.524;8.684;2023-07-30T10:14:44;5.00;;;2.90;;
41201;SDS011;26936;50.524;8.684;2023-07-30T10:17:10;7.38;;;3.42;;
41201;SDS011;26936;50.524;8.684;2023-07-30T10:19:36;6.10;;;3.33;;
41201;SDS011;26936;50.524;8.684;2023-07-30T10:24:55;5.97;;;2.63;;
41201;SDS011;26936;50.524;8.684;2023-07-30T10:27:25;5.15;;;2.45;;
41201;SDS011;26936;50.524;8.684;2023-07-30T10:30:11;6.60;;;2.47;;
41201;SDS011;26936;50.524;8.684;2023-07-30T10:32:41;7.50;;;2.80;;
41201;SDS011;26936;50.524;8.684;2023-07-30T10:38:18;2.20;;;1.10;;
41201;SDS011;26936;50.524;8.684;2023-07-30T10:40:59;2.97;;;1.23;;
41201;SDS011;26936;50.524;8.684;2023-07-30T10:43:48;3.35;;;1.40;;
41201;SDS011;26936;50.524;8.684;2023-07-30T10:46:15;4.30;;;1.50;;
41201;SDS011;26936;50.524;8.684;2023-07-30T10:48:45;2.83;;;1.48;;
41201;SDS011;26936;50.524;8.684;2023-07-30T10:51:12;4.22;;;1.20;;
41201;SDS011;26936;50.524;8.684;2023-07-30T10:53:41;6.63;;;1.60;;
41201;SDS011;26936;50.524;8.684;2023-07-30T10:56:08;3.25;;;1.13;;
41201;SDS011;26936;50.524;8.684;2023-07-30T10:58:35;3.38;;;1.00;;
41201;SDS011;26936;50.524;8.684;2023-07-30T11:01:02;3.05;;;1.23;;
41201;SDS011;26936;50.524;8.684;2023-07-30T11:03:29;3.45;;;1.20;;
41201;SDS011;26936;50.524;8.684;2023-07-30T11:05:54;5.10;;;1.30;;
41201;SDS011;26936;50.524;8.684;2023-07-30T11:08:39;2.72;;;1.20;;
41201;SDS011;26936;50.524;8.684;2023-07-30T11:11:06;7.88;;;1.90;;
41201;SDS011;26936;50.524;8.684;2023-07-30T11:13:37;5.07;;;1.60;;
41201;SDS011;26936;50.524;8.684;2023-07-30T11:16:06;7.70;;;1.40;;
41201;SDS011;26936;50.524;8.684;2023-07-30T11:18:33;5.13;;;1.63;;
41201;SDS011;26936;50.524;8.684;2023-07-30T11:21:09;4.00;;;1.00;;
41201;SDS011;26936;50.524;8.684;2023-07-30T11:23:36;4.32;;;1.35;;
41201;SDS011;26936;50.524;8.684;2023-07-30T11:26:03;5.13;;;1.10;;
41201;SDS011;26936;50.524;8.684;2023-07-30T11:31:04;3.87;;;1.10;;
41201;SDS011;26936;50.524;8.684;2023-07-30T11:33:29;3.08;;;1.40;;
41201;SDS011;26936;50.524;8.684;2023-07-30T11:35:55;3.97;;;1.27;;
41201;SDS011;26936;50.524;8.684;2023-07-30T11:38:24;4.57;;;1.45;;
41201;SDS011;26936;50.524;8.684;2023-07-30T11:40:51;8.23;;;1.40;;
41201;SDS011;26936;50.524;8.684;2023-07-30T11:43:17;3.75;;;1.50;;
41201;SDS011;26936;50.524;8.684;2023-07-30T11:45:43;5.28;;;2.15;;
41201;SDS011;26936;50.524;8.684;2023-07-30T11:48:10;4.97;;;1.20;;
41201;SDS011;26936;50.524;8.684;2023-07-30T11:50:50;4.18;;;1.38;;
41201;SDS011;26936;50.524;8.684;2023-07-30T11:53:17;5.45;;;1.20;;
41201;SDS011;26936;50.524;8.684;2023-07-30T11:55:43;5.13;;;1.33;;
41201;SDS011;26936;50.524;8.684;2023-07-30T11:58:10;4.20;;;1.30;;
41201;SDS011;26936;50.524;8.684;2023-07-30T12:00:37;6.22;;;1.50;;
41201;SDS011;26936;50.524;8.684;2023-07-30T12:03:03;4.07;;;1.25;;
41201;SDS011;26936;50.524;8.684;2023-07-30T12:05:34;4.20;;;1.00;;
41201;SDS011;26936;50.524;8.684;2023-07-30T12:08:01;4.63;;;1.10;;
41201;SDS011;26936;50.524;8.684;2023-07-30T12:10:28;6.07;;;1.67;;
41201;SDS011;26936;50.524;8.684;2023-07-30T12:13:11;5.20;;;1.55;;
41201;SDS011;26936;50.524;8.684;2023-07-30T12:15:51;4.32;;;1.48;;
41201;SDS011;26936;50.524;8.684;2023-07-30T12:18:21;7.53;;;1.75;;
41201;SDS011;26936;50.524;8.684;2023-07-30T12:20:48;4.97;;;1.60;;
41201;SDS011;26936;50.524;8.684;2023-07-30T12:23:15;5.50;;;1.60;;
41201;SDS011;26936;50.524;8.684;2023-07-30T12:25:41;6.97;;;1.80;;
41201;SDS011;26936;50.524;8.684;2023-07-30T12:28:06;4.27;;;1.10;;
41201;SDS011;26936;50.524;8.684;2023-07-30T12:30:32;5.60;;;1.75;;
41201;SDS011;26936;50.524;8.684;2023-07-30T12:32:57;2.50;;;0.82;;
41201;SDS011;26936;50.524;8.684;2023-07-30T12:35:23;8.63;;;1.50;;
41201;SDS011;26936;50.524;8.684;2023-07-30T12:37:49;6.55;;;1.58;;
41201;SDS011;26936;50.524;8.684;2023-07-30T12:40:14;4.20;;;1.20;;
41201;SDS011;26936;50.524;8.684;2023-07-30T12:42:39;3.05;;;1.38;;
41201;SDS011;26936;50.524;8.684;2023-07-30T12:45:05;4.40;;;1.10;;
41201;SDS011;26936;50.524;8.684;2023-07-30T12:47:31;6.15;;;1.42;;
41201;SDS011;26936;50.524;8.684;2023-07-30T12:49:57;4.07;;;1.60;;
41201;SDS011;26936;50.524;8.684;2023-07-30T12:52:22;6.75;;;1.48;;
41201;SDS011;26936;50.524;8.684;2023-07-30T12:54:47;5.37;;;1.33;;
41201;SDS011;26936;50.524;8.684;2023-07-30T12:57:13;6.60;;;1.30;;
41201;SDS011;26936;50.524;8.684;2023-07-30T12:59:38;4.90;;;0.90;;
41201;SDS011;26936;50.524;8.684;2023-07-30T13:02:03;7.13;;;1.67;;
41201;SDS011;26936;50.524;8.684;2023-07-30T13:04:29;6.07;;;1.23;;
41201;SDS011;26936;50.524;8.684;2023-07-30T13:06:54;5.63;;;1.50;;
41201;SDS011;26936;50.524;8.684;2023-07-30T13:09:19;5.23;;;1.60;;
41201;SDS011;26936;50.524;8.684;2023-07-30T13:11:45;6.22;;;1.35;;
41201;SDS011;26936;50.524;8.684;2023-07-30T13:14:10;5.47;;;1.40;;
41201;SDS011;26936;50.524;8.684;2023-07-30T13:16:36;4.65;;;1.40;;
41201;SDS011;26936;50.524;8.684;2023-07-30T13:19:02;5.50;;;1.50;;
41201;SDS011;26936;50.524;8.684;2023-07-30T13:21:27;5.95;;;1.52;;
41201;SDS011;26936;50.524;8.684;2023-07-30T13:23:52;8.07;;;1.30;;
41201;SDS011;26936;50.524;8.684;2023-07-30T13:26:17;4.30;;;1.27;;
41201;SDS011;26936;50.524;8.684;2023-07-30T13:28:44;5.32;;;1.40;;
41201;SDS011;26936;50.524;8.684;2023-07-30T13:31:09;5.43;;;1.00;;
41201;SDS011;26936;50.524;8.684;2023-07-30T13:33:35;5.10;;;0.98;;
41201;SDS011;26936;50.524;8.684;2023-07-30T13:36:01;4.78;;;1.20;;
41201;SDS011;26936;50.524;8.684;2023-07-30T13:38:26;4.18;;;1.35;;
41201;SDS011;26936;50.524;8.684;2023-07-30T13:40:52;6.78;;;1.05;;
41201;SDS011;26936;50.524;8.684;2023-07-30T13:43:17;4.07;;;1.00;;
41201;SDS011;26936;50.524;8.684;2023-07-30T13:45:43;7.83;;;1.73;;
41201;SDS011;26936;50.524;8.684;2023-07-30T13:48:08;5.50;;;1.25;;
41201;SDS011;26936;50.524;8.684;2023-07-30T13:50:34;6.28;;;1.73;;
41201;SDS011;26936;50.524;8.684;2023-07-30T13:52:59;7.00;;;1.30;;
41201;SDS011;26936;50.524;8.684;2023-07-30T13:55:25;5.93;;;1.38;;
41201;SDS011;26936;50.524;8.684;2023-07-30T13:57:50;6.10;;;1.10;;
41201;SDS011;26936;50.524;8.684;2023-07-30T14:00:15;4.68;;;1.00;;
41201;SDS011;26936;50.524;8.684;2023-07-30T14:02:41;6.93;;;1.50;;
41201;SDS011;26936;50.524;8.684;2023-07-30T14:05:07;8.63;;;1.45;;
41201;SDS011;26936;50.524;8.684;2023-07-30T14:07:32;5.28;;;1.25;;
41201;SDS011;26936;50.524;8.684;2023-07-30T14:09:57;4.40;;;1.17;;
41201;SDS011;26936;50.524;8.684;2023-07-30T14:12:23;3.85;;;0.85;;
41201;SDS011;26936;50.524;8.684;2023-07-30T14:14:48;3.80;;;0.83;;
41201;SDS011;26936;50.524;8.684;2023-07-30T14:17:13;3.10;;;1.10;;
41201;SDS011;26936;50.524;8.684;2023-07-30T14:19:38;5.70;;;1.80;;
41201;SDS011;26936;50.524;8.684;2023-07-30T14:22:04;5.63;;;1.33;;
41201;SDS011;26936;50.524;8.684;2023-07-30T14:24:29;3.90;;;1.20;;
41201;SDS011;26936;50.524;8.684;2023-07-30T14:26:55;4.78;;;1.30;;
41201;SDS011;26936;50.524;8.684;2023-07-30T14:29:20;2.85;;;1.00;;
41201;SDS011;26936;50.524;8.684;2023-07-30T14:31:46;2.50;;;1.20;;
41201;SDS011;26936;50.524;8.684;2023-07-30T14:34:11;4.33;;;1.23;;
41201;SDS011;26936;50.524;8.684;2023-07-30T14:36:37;5.22;;;1.27;;
41201;SDS011;26936;50.524;8.684;2023-07-30T14:39:02;4.97;;;1.40;;
41201;SDS011;26936;50.524;8.684;2023-07-30T14:41:27;5.38;;;1.30;;
41201;SDS011;26936;50.524;8.684;2023-07-30T14:43:52;4.72;;;1.20;;
41201;SDS011;26936;50.524;8.684;2023-07-30T14:46:18;7.23;;;1.60;;
41201;SDS011;26936;50.524;8.684;2023-07-30T14:48:43;3.17;;;0.90;;
41201;SDS011;26936;50.524;8.684;2023-07-30T14:51:08;4.37;;;1.30;;